sensor_id;sensor_type;location;lat;lon;timestamp;pressure;altitude;pressure_sealevel;temperature;humidity
54248;BME280;40161;39.768;2.722;2023-09-19T00:01:33;101390.44;;;21.71;100.00
54248;BME280;40161;39.768;2.722;2023-09-19T00:03:58;101392.16;;;21.65;100.00
54248;BME280;40161;39.768;2.722;2023-09-19T00:06:24;101410.88;;;21.88;100.00
54248;BME280;40161;39.768;2.722;2023-09-19T00:08:51;101397.63;;;21.72;100.00
54248;BME280;40161;39.768;2.722;2023-09-19T00:11:17;101413.03;;;21.80;100.00
54248;BME280;40161;39.768;2.722;2023-09-19T00:13:43;101416.19;;;21.82;100.00
54248;BME280;40161;39.768;2.722;2023-09-19T00:16:10;101409.56;;;21.72;100.00
54248;BME280;40161;39.768;2.722;2023-09-19T00:18:37;101405.72;;;21.86;100.00
54248;BME280;40161;39.768;2.722;2023-09-19T00:21:03;101404.50;;;21.87;100.00
54248;BME280;40161;39.768;2.722;2023-09-19T00:23:30;101385.13;;;21.56;100.00
54248;BME280;40161;39.768;2.722;2023-09-19T00:25:59;101393.81;;;21.62;100.00
54248;BME280;40161;39.768;2.722;2023-09-19T00:28:25;101401.81;;;21.60;100.00
54248;BME280;40161;39.768;2.722;2023-09-19T00:30:51;101400.88;;;21.67;100.00
54248;BME280;40161;39.768;2.722;2023-09-19T00:33:20;101387.97;;;21.53;100.00
54248;BME280;40161;39.768;2.722;2023-09-19T00:35:50;101392.56;;;21.63;100.00
54248;BME280;40161;39.768;2.722;2023-09-19T00:38:16;101384.56;;;21.65;100.00
54248;BME280;40161;39.768;2.722;2023-09-19T00:40:46;101392.63;;;21.36;100.00
54248;BME280;40161;39.768;2.722;2023-09-19T00:43:11;101398.72;;;21.04;100.00
54248;BME280;40161;39.768;2.722;2023-09-19T00:45:38;101375.84;;;20.89;100.00
54248;BME280;40161;39.768;2.722;2023-09-19T00:48:04;101401.75;;;21.40;100.00
54248;BME280;40161;39.768;2.722;2023-09-19T00:50:35;101404.13;;;21.65;100.00
54248;BME280;40161;39.768;2.722;2023-09-19T00:53:01;101398.28;;;21.79;100.00
54248;BME280;40161;39.768;2.722;2023-09-19T00:55:28;101392.56;;;21.40;100.00
54248;BME280;40161;39.768;2.722;2023-09-19T00:57:56;101413.44;;;21.31;100.00
54248;BME280;40161;39.768;2.722;2023-09-19T01:00:22;101401.16;;;21.25;100.00
54248;BME280;40161;39.768;2.722;2023-09-19T01:02:49;101382.00;;;21.27;100.00
54248;BME280;40161;39.768;2.722;2023-09-19T01:05:14;101380.09;;;21.48;100.00
54248;BME280;40161;39.768;2.722;2023-09-19T01:07:41;101386.16;;;21.43;100.00
54248;BME280;40161;39.768;2.722;2023-09-19T01:10:09;101400.16;;;21.39;100.00
54248;BME280;40161;39.768;2.722;2023-09-19T01:13:01;101398.53;;;21.65;100.00
54248;BME280;40161;39.768;2.722;2023-09-19T01:15:44;101393.34;;;21.64;98.18
54248;BME280;40161;39.768;2.722;2023-09-19T01:19:10;101393.03;;;21.81;97.24
54248;BME280;40161;39.768;2.722;2023-09-19T01:24:50;101402.47;;;20.94;100.00
54248;BME280;40161;39.768;2.722;2023-09-19T01:29:51;101415.81;;;21.56;100.00
54248;BME280;40161;39.768;2.722;2023-09-19T01:32:18;101416.41;;;21.48;100.00
54248;BME280;40161;39.768;2.722;2023-09-19T01:34:52;101396.81;;;21.24;100.00
54248;BME280;40161;39.768;2.722;2023-09-19T01:37:19;101420.34;;;21.23;100.00
54248;BME280;40161;39.768;2.722;2023-09-19T01:39:47;101422.31;;;21.73;98.79
54248;BME280;40161;39.768;2.722;2023-09-19T01:44:59;101397.06;;;21.33;100.00
54248;BME280;40161;39.768;2.722;2023-09-19T01:47:33;101425.00;;;21.30;100.00
54248;BME280;40161;39.768;2.722;2023-09-19T01:50:12;101422.66;;;21.28;100.00
54248;BME280;40161;39.768;2.722;2023-09-19T01:52:45;101419.72;;;21.39;100.00
54248;BME280;40161;39.768;2.722;2023-09-19T01:55:14;101420.97;;;21.07;100.00
54248;BME280;40161;39.768;2.722;2023-09-19T01:57:49;101390.13;;;20.91;100.00
54248;BME280;40161;39.768;2.722;2023-09-19T02:00:18;101413.50;;;21.01;100.00
54248;BME280;40161;39.768;2.722;2023-09-19T02:02:47;101417.13;;;20.98;99.37
54248;BME280;40161;39.768;2.722;2023-09-19T02:05:13;101401.34;;;20.88;98.03
54248;BME280;40161;39.768;2.722;2023-09-19T02:07:47;101403.25;;;20.94;96.34
54248;BME280;40161;39.768;2.722;2023-09-19T02:10:13;101399.44;;;21.35;92.61
54248;BME280;40161;39.768;2.722;2023-09-19T02:12:39;101425.44;;;21.28;94.79
54248;BME280;40161;39.768;2.722;2023-09-19T02:15:05;101404.47;;;20.93;94.48
54248;BME280;40161;39.768;2.722;2023-09-19T02:17:33;101423.38;;;20.78;97.05
54248;BME280;40161;39.768;2.722;2023-09-19T02:19:58;101425.75;;;20.80;100.00
54248;BME280;40161;39.768;2.722;2023-09-19T02:22:27;101427.78;;;20.79;97.90
54248;BME280;40161;39.768;2.722;2023-09-19T02:24:53;101399.09;;;20.79;95.76
54248;BME280;40161;39.768;2.722;2023-09-19T02:27:19;101398.19;;;20.85;95.66
54248;BME280;40161;39.768;2.722;2023-09-19T02:29:45;101418.31;;;21.00;94.79
54248;BME280;40161;39.768;2.722;2023-09-19T02:32:10;101416.63;;;21.30;90.23
54248;BME280;40161;39.768;2.722;2023-09-19T02:34:36;101406.72;;;21.02;91.92
54248;BME280;40161;39.768;2.722;2023-09-19T02:37:05;101401.41;;;21.11;91.58
54248;BME280;40161;39.768;2.722;2023-09-19T02:39:32;101404.44;;;21.20;91.61
54248;BME280;40161;39.768;2.722;2023-09-19T02:41:58;101392.19;;;21.14;90.04
54248;BME280;40161;39.768;2.722;2023-09-19T02:44:23;101397.75;;;21.14;90.20
54248;BME280;40161;39.768;2.722;2023-09-19T02:46:49;101385.78;;;20.90;94.48
54248;BME280;40161;39.768;2.722;2023-09-19T02:49:15;101376.44;;;20.73;92.99
54248;BME280;40161;39.768;2.722;2023-09-19T02:51:43;101388.72;;;20.79;94.83
54248;BME280;40161;39.768;2.722;2023-09-19T02:54:09;101388.50;;;21.21;89.90
54248;BME280;40161;39.768;2.722;2023-09-19T02:56:35;101402.22;;;20.81;91.46
54248;BME280;40161;39.768;2.722;2023-09-19T02:59:01;101381.91;;;20.50;95.31
54248;BME280;40161;39.768;2.722;2023-09-19T03:01:27;101400.78;;;21.00;93.27
54248;BME280;40161;39.768;2.722;2023-09-19T03:03:53;101396.81;;;21.24;89.83
54248;BME280;40161;39.768;2.722;2023-09-19T03:06:20;101386.09;;;20.69;92.20
54248;BME280;40161;39.768;2.722;2023-09-19T03:08:47;101377.59;;;20.45;93.03
54248;BME280;40161;39.768;2.722;2023-09-19T03:11:14;101392.56;;;20.62;94.01
54248;BME280;40161;39.768;2.722;2023-09-19T03:13:41;101376.44;;;20.73;94.01
54248;BME280;40161;39.768;2.722;2023-09-19T03:16:08;101371.75;;;20.67;95.16
54248;BME280;40161;39.768;2.722;2023-09-19T03:18:34;101371.25;;;20.45;94.75
54248;BME280;40161;39.768;2.722;2023-09-19T03:21:00;101375.69;;;20.38;95.48
54248;BME280;40161;39.768;2.722;2023-09-19T03:23:27;101370.59;;;20.64;92.77
54248;BME280;40161;39.768;2.722;2023-09-19T03:25:56;101363.75;;;20.38;92.93
54248;BME280;40161;39.768;2.722;2023-09-19T03:28:22;101351.25;;;20.80;96.64
54248;BME280;40161;39.768;2.722;2023-09-19T03:31:06;101356.47;;;21.02;91.04
54248;BME280;40161;39.768;2.722;2023-09-19T03:33:32;101335.41;;;20.43;90.92
54248;BME280;40161;39.768;2.722;2023-09-19T03:35:59;101331.28;;;20.24;92.11
54248;BME280;40161;39.768;2.722;2023-09-19T03:38:26;101333.00;;;20.45;93.28
54248;BME280;40161;39.768;2.722;2023-09-19T03:40:52;101331.66;;;20.57;90.17
54248;BME280;40161;39.768;2.722;2023-09-19T03:43:18;101351.06;;;20.91;89.80
54248;BME280;40161;39.768;2.722;2023-09-19T03:45:44;101344.19;;;20.72;90.94
54248;BME280;40161;39.768;2.722;2023-09-19T03:48:12;101347.88;;;20.35;93.85
54248;BME280;40161;39.768;2.722;2023-09-19T03:50:38;101338.75;;;20.00;94.40
54248;BME280;40161;39.768;2.722;2023-09-19T03:53:04;101344.41;;;19.93;96.06
54248;BME280;40161;39.768;2.722;2023-09-19T03:55:32;101340.63;;;19.76;98.01
54248;BME280;40161;39.768;2.722;2023-09-19T03:57:57;101300.47;;;19.74;98.10
54248;BME280;40161;39.768;2.722;2023-09-19T04:00:23;101332.69;;;20.39;94.73
54248;BME280;40161;39.768;2.722;2023-09-19T04:02:52;101336.00;;;20.31;97.68
54248;BME280;40161;39.768;2.722;2023-09-19T04:05:18;101333.69;;;20.22;96.94
54248;BME280;40161;39.768;2.722;2023-09-19T04:07:44;101331.69;;;20.23;97.36
54248;BME280;40161;39.768;2.722;2023-09-19T04:10:10;101333.75;;;20.19;98.33
54248;BME280;40161;39.768;2.722;2023-09-19T04:12:40;101309.13;;;20.44;96.13
54248;BME280;40161;39.768;2.722;2023-09-19T04:15:06;101319.00;;;20.52;95.65
54248;BME280;40161;39.768;2.722;2023-09-19T04:17:32;101310.03;;;20.37;96.64
54248;BME280;40161;39.768;2.722;2023-09-19T04:19:59;101327.94;;;20.67;94.39
54248;BME280;40161;39.768;2.722;2023-09-19T04:22:25;101330.09;;;20.25;96.53
54248;BME280;40161;39.768;2.722;2023-09-19T04:24:50;101300.28;;;19.88;98.51
54248;BME280;40161;39.768;2.722;2023-09-19T04:27:16;101319.91;;;20.11;97.89
54248;BME280;40161;39.768;2.722;2023-09-19T04:29:42;101307.38;;;20.27;97.18
54248;BME280;40161;39.768;2.722;2023-09-19T04:32:08;101305.91;;;20.46;95.25
54248;BME280;40161;39.768;2.722;2023-09-19T04:34:36;101324.78;;;20.34;95.36
54248;BME280;40161;39.768;2.722;2023-09-19T04:37:05;101298.69;;;20.21;94.93
54248;BME280;40161;39.768;2.722;2023-09-19T04:39:31;101316.47;;;20.31;97.26
54248;BME280;40161;39.768;2.722;2023-09-19T04:41:56;101305.59;;;20.40;95.65
54248;BME280;40161;39.768;2.722;2023-09-19T04:44:23;101325.75;;;20.55;95.28
54248;BME280;40161;39.768;2.722;2023-09-19T04:46:48;101308.28;;;20.47;96.17
54248;BME280;40161;39.768;2.722;2023-09-19T04:49:14;101318.56;;;20.54;95.59
54248;BME280;40161;39.768;2.722;2023-09-19T04:51:39;101317.66;;;20.30;97.60
54248;BME280;40161;39.768;2.722;2023-09-19T04:54:05;101310.06;;;20.88;94.14
54248;BME280;40161;39.768;2.722;2023-09-19T04:56:32;101297.16;;;20.44;94.10
54248;BME280;40161;39.768;2.722;2023-09-19T04:58:58;101314.19;;;20.22;96.52
54248;BME280;40161;39.768;2.722;2023-09-19T05:01:27;101293.25;;;20.41;95.21
54248;BME280;40161;39.768;2.722;2023-09-19T05:03:52;101289.00;;;20.29;96.38
54248;BME280;40161;39.768;2.722;2023-09-19T05:06:19;101292.53;;;20.06;96.97
54248;BME280;40161;39.768;2.722;2023-09-19T05:08:48;101299.56;;;20.45;95.52
54248;BME280;40161;39.768;2.722;2023-09-19T05:11:18;101300.44;;;20.38;96.22
54248;BME280;40161;39.768;2.722;2023-09-19T05:13:44;101283.84;;;20.01;97.64
54248;BME280;40161;39.768;2.722;2023-09-19T05:16:10;101307.38;;;19.96;99.97
54248;BME280;40161;39.768;2.722;2023-09-19T05:18:36;101305.72;;;19.99;99.87
54248;BME280;40161;39.768;2.722;2023-09-19T05:21:02;101302.81;;;20.09;96.93
54248;BME280;40161;39.768;2.722;2023-09-19T05:23:28;101302.75;;;20.17;97.91
54248;BME280;40161;39.768;2.722;2023-09-19T05:25:54;101288.81;;;20.17;97.24
54248;BME280;40161;39.768;2.722;2023-09-19T05:28:22;101300.84;;;20.10;99.32
54248;BME280;40161;39.768;2.722;2023-09-19T05:30:47;101327.44;;;20.14;98.90
54248;BME280;40161;39.768;2.722;2023-09-19T05:33:14;101317.66;;;20.03;100.00
54248;BME280;40161;39.768;2.722;2023-09-19T05:35:39;101328.41;;;20.01;100.00
54248;BME280;40161;39.768;2.722;2023-09-19T05:38:07;101325.31;;;19.91;100.00
54248;BME280;40161;39.768;2.722;2023-09-19T05:40:38;101355.88;;;19.99;100.00
54248;BME280;40161;39.768;2.722;2023-09-19T05:43:07;101345.41;;;19.76;100.00
54248;BME280;40161;39.768;2.722;2023-09-19T05:45:33;101364.31;;;19.91;100.00
54248;BME280;40161;39.768;2.722;2023-09-19T05:48:08;101356.31;;;19.97;100.00
54248;BME280;40161;39.768;2.722;2023-09-19T05:50:34;101364.44;;;20.15;98.32
54248;BME280;40161;39.768;2.722;2023-09-19T05:52:59;101385.28;;;20.37;97.80
54248;BME280;40161;39.768;2.722;2023-09-19T05:55:25;101386.06;;;20.38;97.77
54248;BME280;40161;39.768;2.722;2023-09-19T05:57:52;101385.38;;;20.61;97.68
54248;BME280;40161;39.768;2.722;2023-09-19T06:00:23;101386.38;;;20.74;95.64
54248;BME280;40161;39.768;2.722;2023-09-19T06:02:53;101400.34;;;20.74;96.19
54248;BME280;40161;39.768;2.722;2023-09-19T06:05:19;101394.13;;;20.90;95.30
54248;BME280;40161;39.768;2.722;2023-09-19T06:07:45;101388.13;;;20.92;94.50
54248;BME280;40161;39.768;2.722;2023-09-19T06:10:12;101387.44;;;20.84;94.93
54248;BME280;40161;39.768;2.722;2023-09-19T06:12:44;101362.28;;;20.60;94.98
54248;BME280;40161;39.768;2.722;2023-09-19T06:15:11;101382.88;;;20.97;93.24
54248;BME280;40161;39.768;2.722;2023-09-19T06:17:52;101388.06;;;20.37;99.56
54248;BME280;40161;39.768;2.722;2023-09-19T06:20:22;101361.97;;;19.90;100.00
54248;BME280;40161;39.768;2.722;2023-09-19T06:22:49;101381.25;;;20.08;100.00
54248;BME280;40161;39.768;2.722;2023-09-19T06:25:16;101361.66;;;20.15;100.00
54248;BME280;40161;39.768;2.722;2023-09-19T06:27:52;101356.47;;;20.48;98.19
54248;BME280;40161;39.768;2.722;2023-09-19T06:30:19;101379.06;;;20.23;100.00
54248;BME280;40161;39.768;2.722;2023-09-19T06:32:45;101375.50;;;20.22;100.00
54248;BME280;40161;39.768;2.722;2023-09-19T06:35:12;101352.63;;;20.38;99.28
54248;BME280;40161;39.768;2.722;2023-09-19T06:37:38;101365.34;;;20.70;99.21
54248;BME280;40161;39.768;2.722;2023-09-19T06:40:11;101368.53;;;20.72;97.88
54248;BME280;40161;39.768;2.722;2023-09-19T06:42:41;101378.31;;;20.53;100.00
54248;BME280;40161;39.768;2.722;2023-09-19T06:45:08;101384.31;;;20.82;99.59
54248;BME280;40161;39.768;2.722;2023-09-19T06:47:37;101371.97;;;20.49;100.00
54248;BME280;40161;39.768;2.722;2023-09-19T06:50:02;101364.13;;;20.40;100.00
54248;BME280;40161;39.768;2.722;2023-09-19T06:52:29;101378.28;;;20.56;100.00
54248;BME280;40161;39.768;2.722;2023-09-19T06:54:54;101389.25;;;20.98;99.34
54248;BME280;40161;39.768;2.722;2023-09-19T06:57:20;101384.72;;;21.07;100.00
54248;BME280;40161;39.768;2.722;2023-09-19T06:59:45;101401.16;;;21.25;98.77
54248;BME280;40161;39.768;2.722;2023-09-19T07:02:11;101405.69;;;22.10;96.58
54248;BME280;40161;39.768;2.722;2023-09-19T07:04:37;101401.13;;;22.75;92.35
54248;BME280;40161;39.768;2.722;2023-09-19T07:07:02;101384.09;;;22.86;90.44
54248;BME280;40161;39.768;2.722;2023-09-19T07:09:28;101400.31;;;23.11;89.70
54248;BME280;40161;39.768;2.722;2023-09-19T07:11:54;101391.41;;;23.16;88.69
54248;BME280;40161;39.768;2.722;2023-09-19T07:14:20;101383.19;;;23.26;87.74
54248;BME280;40161;39.768;2.722;2023-09-19T07:16:45;101393.13;;;23.43;86.82
54248;BME280;40161;39.768;2.722;2023-09-19T07:19:13;101373.31;;;23.37;86.80
54248;BME280;40161;39.768;2.722;2023-09-19T07:21:40;101370.66;;;23.46;86.83
54248;BME280;40161;39.768;2.722;2023-09-19T07:24:06;101360.06;;;23.54;86.70
54248;BME280;40161;39.768;2.722;2023-09-19T07:26:33;101377.19;;;23.73;86.56
54248;BME280;40161;39.768;2.722;2023-09-19T07:28:59;101377.09;;;23.76;86.74
54248;BME280;40161;39.768;2.722;2023-09-19T07:31:25;101369.06;;;23.78;86.85
54248;BME280;40161;39.768;2.722;2023-09-19T07:33:52;101347.31;;;23.37;87.39
54248;BME280;40161;39.768;2.722;2023-09-19T07:36:18;101348.72;;;23.12;90.45
54248;BME280;40161;39.768;2.722;2023-09-19T07:38:44;101365.34;;;23.03;90.57
54248;BME280;40161;39.768;2.722;2023-09-19T07:41:09;101363.50;;;22.96;90.52
54248;BME280;40161;39.768;2.722;2023-09-19T07:43:35;101366.16;;;22.84;90.63
54248;BME280;40161;39.768;2.722;2023-09-19T07:46:04;101359.25;;;22.36;93.96
54248;BME280;40161;39.768;2.722;2023-09-19T07:48:32;101368.50;;;22.33;95.69
54248;BME280;40161;39.768;2.722;2023-09-19T07:51:02;101377.88;;;22.02;96.66
54248;BME280;40161;39.768;2.722;2023-09-19T07:53:28;101394.59;;;22.26;95.01
54248;BME280;40161;39.768;2.722;2023-09-19T07:56:02;101387.19;;;22.36;95.92
54248;BME280;40161;39.768;2.722;2023-09-19T07:58:27;101372.78;;;21.97;98.62
54248;BME280;40161;39.768;2.722;2023-09-19T08:00:53;101405.44;;;22.24;96.93
54248;BME280;40161;39.768;2.722;2023-09-19T08:03:18;101425.19;;;22.33;95.86
54248;BME280;40161;39.768;2.722;2023-09-19T08:05:44;101413.44;;;22.22;97.27
54248;BME280;40161;39.768;2.722;2023-09-19T08:08:10;101433.16;;;22.35;97.93
54248;BME280;40161;39.768;2.722;2023-09-19T08:10:38;101428.59;;;22.44;95.34
54248;BME280;40161;39.768;2.722;2023-09-19T08:13:07;101427.81;;;22.80;96.06
54248;BME280;40161;39.768;2.722;2023-09-19T08:15:43;101438.38;;;23.09;92.59
54248;BME280;40161;39.768;2.722;2023-09-19T08:18:09;101437.69;;;23.21;90.01
54248;BME280;40161;39.768;2.722;2023-09-19T08:20:38;101436.22;;;23.49;90.06
54248;BME280;40161;39.768;2.722;2023-09-19T08:23:03;101434.63;;;23.64;88.42
54248;BME280;40161;39.768;2.722;2023-09-19T08:25:29;101425.38;;;23.67;87.04
54248;BME280;40161;39.768;2.722;2023-09-19T08:27:55;101433.94;;;23.77;84.75
54248;BME280;40161;39.768;2.722;2023-09-19T08:30:25;101399.00;;;23.65;86.64
54248;BME280;40161;39.768;2.722;2023-09-19T08:32:59;101415.25;;;23.86;86.73
54248;BME280;40161;39.768;2.722;2023-09-19T08:35:26;101441.41;;;24.12;87.15
54248;BME280;40161;39.768;2.722;2023-09-19T08:37:51;101424.00;;;24.17;87.02
54248;BME280;40161;39.768;2.722;2023-09-19T08:40:17;101414.94;;;24.13;87.06
54248;BME280;40161;39.768;2.722;2023-09-19T08:42:55;101413.28;;;24.29;87.78
54248;BME280;40161;39.768;2.722;2023-09-19T08:45:21;101436.03;;;24.47;89.00
54248;BME280;40161;39.768;2.722;2023-09-19T08:48:24;101430.75;;;24.49;84.61
54248;BME280;40161;39.768;2.722;2023-09-19T08:51:00;101431.09;;;24.51;82.51
54248;BME280;40161;39.768;2.722;2023-09-19T08:53:31;101443.69;;;24.72;83.11
54248;BME280;40161;39.768;2.722;2023-09-19T08:56:00;101452.47;;;24.74;78.56
54248;BME280;40161;39.768;2.722;2023-09-19T08:58:34;101457.72;;;24.72;76.91
54248;BME280;40161;39.768;2.722;2023-09-19T09:01:06;101447.75;;;24.71;78.59
54248;BME280;40161;39.768;2.722;2023-09-19T09:03:33;101440.78;;;24.76;79.39
54248;BME280;40161;39.768;2.722;2023-09-19T09:06:00;101427.28;;;24.71;77.12
54248;BME280;40161;39.768;2.722;2023-09-19T09:08:27;101438.44;;;24.87;77.32
54248;BME280;40161;39.768;2.722;2023-09-19T09:10:56;101437.31;;;24.84;78.66
54248;BME280;40161;39.768;2.722;2023-09-19T09:13:23;101437.53;;;24.90;79.23
54248;BME280;40161;39.768;2.722;2023-09-19T09:15:51;101441.00;;;24.94;77.70
54248;BME280;40161;39.768;2.722;2023-09-19T09:18:20;101437.66;;;24.99;75.91
54248;BME280;40161;39.768;2.722;2023-09-19T09:20:46;101444.31;;;25.18;72.62
54248;BME280;40161;39.768;2.722;2023-09-19T09:23:13;101433.41;;;25.20;71.87
54248;BME280;40161;39.768;2.722;2023-09-19T09:25:52;101421.72;;;25.09;72.83
54248;BME280;40161;39.768;2.722;2023-09-19T09:28:26;101424.63;;;25.05;73.36
54248;BME280;40161;39.768;2.722;2023-09-19T09:30:54;101416.09;;;25.09;73.17
54248;BME280;40161;39.768;2.722;2023-09-19T09:33:20;101416.53;;;25.07;74.31
54248;BME280;40161;39.768;2.722;2023-09-19T09:35:59;101457.66;;;25.40;73.04
54248;BME280;40161;39.768;2.722;2023-09-19T09:38:47;101467.31;;;25.51;69.15
54248;BME280;40161;39.768;2.722;2023-09-19T09:41:16;101457.63;;;25.52;68.69
54248;BME280;40161;39.768;2.722;2023-09-19T09:43:53;101473.94;;;25.57;67.59
54248;BME280;40161;39.768;2.722;2023-09-19T09:46:20;101480.44;;;25.67;66.07
54248;BME280;40161;39.768;2.722;2023-09-19T09:49:06;101482.66;;;25.72;68.75
54248;BME280;40161;39.768;2.722;2023-09-19T09:51:51;101501.81;;;25.65;67.42
54248;BME280;40161;39.768;2.722;2023-09-19T09:54:27;101478.81;;;25.79;65.49
54248;BME280;40161;39.768;2.722;2023-09-19T09:57:06;101502.34;;;25.85;65.88
54248;BME280;40161;39.768;2.722;2023-09-19T09:59:53;101508.31;;;25.74;66.61
54248;BME280;40161;39.768;2.722;2023-09-19T10:02:21;101507.06;;;25.63;67.14
54248;BME280;40161;39.768;2.722;2023-09-19T10:04:54;101503.94;;;25.61;69.18
54248;BME280;40161;39.768;2.722;2023-09-19T10:07:40;101533.03;;;25.92;69.54
54248;BME280;40161;39.768;2.722;2023-09-19T10:10:12;101510.88;;;25.69;70.56
54248;BME280;40161;39.768;2.722;2023-09-19T10:12:48;101532.03;;;25.86;71.29
54248;BME280;40161;39.768;2.722;2023-09-19T10:15:18;101536.84;;;25.98;70.57
54248;BME280;40161;39.768;2.722;2023-09-19T10:17:47;101516.63;;;25.78;69.79
54248;BME280;40161;39.768;2.722;2023-09-19T10:20:15;101518.56;;;25.55;72.97
54248;BME280;40161;39.768;2.722;2023-09-19T10:23:04;101539.22;;;25.49;74.30
54248;BME280;40161;39.768;2.722;2023-09-19T10:25:36;101540.25;;;25.42;73.57
54248;BME280;40161;39.768;2.722;2023-09-19T10:28:05;101547.44;;;25.56;72.81
54248;BME280;40161;39.768;2.722;2023-09-19T10:30:36;101546.22;;;25.44;72.50
54248;BME280;40161;39.768;2.722;2023-09-19T10:33:04;101541.50;;;25.41;71.48
54248;BME280;40161;39.768;2.722;2023-09-19T10:35:33;101527.78;;;25.43;72.55
54248;BME280;40161;39.768;2.722;2023-09-19T10:38:03;101523.63;;;25.61;72.28
54248;BME280;40161;39.768;2.722;2023-09-19T10:40:33;101507.31;;;25.55;71.75
54248;BME280;40161;39.768;2.722;2023-09-19T10:43:03;101524.59;;;25.67;72.57
54248;BME280;40161;39.768;2.722;2023-09-19T10:45:31;101518.78;;;25.61;71.36
54248;BME280;40161;39.768;2.722;2023-09-19T10:47:58;101516.53;;;25.56;71.67
54248;BME280;40161;39.768;2.722;2023-09-19T10:50:24;101499.56;;;25.47;72.38
54248;BME280;40161;39.768;2.722;2023-09-19T10:52:53;101521.72;;;25.57;72.91
54248;BME280;40161;39.768;2.722;2023-09-19T10:55:31;101508.22;;;25.52;75.94
54248;BME280;40161;39.768;2.722;2023-09-19T10:57:56;101506.66;;;25.51;78.20
54248;BME280;40161;39.768;2.722;2023-09-19T11:00:55;101491.69;;;25.42;79.03
54248;BME280;40161;39.768;2.722;2023-09-19T11:03:23;101507.66;;;25.57;79.50
54248;BME280;40161;39.768;2.722;2023-09-19T11:06:06;101506.19;;;25.53;78.80
54248;BME280;40161;39.768;2.722;2023-09-19T11:30:40;101479.81;;;25.38;80.93
54248;BME280;40161;39.768;2.722;2023-09-19T11:49:18;101458.78;;;25.42;78.91
54248;BME280;40161;39.768;2.722;2023-09-19T11:51:52;101467.44;;;25.48;80.45
54248;BME280;40161;39.768;2.722;2023-09-19T11:54:18;101456.28;;;25.57;77.59
54248;BME280;40161;39.768;2.722;2023-09-19T11:56:49;101460.78;;;25.67;76.35
54248;BME280;40161;39.768;2.722;2023-09-19T11:59:23;101463.06;;;25.47;79.58
54248;BME280;40161;39.768;2.722;2023-09-19T12:01:54;101459.78;;;25.48;75.99
54248;BME280;40161;39.768;2.722;2023-09-19T12:04:39;101440.69;;;25.43;78.13
54248;BME280;40161;39.768;2.722;2023-09-19T12:07:13;101455.16;;;25.54;77.95
54248;BME280;40161;39.768;2.722;2023-09-19T12:09:42;101466.84;;;25.53;78.51
54248;BME280;40161;39.768;2.722;2023-09-19T12:12:10;101464.38;;;25.55;79.98
54248;BME280;40161;39.768;2.722;2023-09-19T12:14:38;101441.91;;;25.42;81.71
54248;BME280;40161;39.768;2.722;2023-09-19T12:17:04;101441.78;;;25.46;82.12
54248;BME280;40161;39.768;2.722;2023-09-19T12:19:30;101452.72;;;25.44;81.55
54248;BME280;40161;39.768;2.722;2023-09-19T12:22:02;101446.63;;;25.45;81.39
54248;BME280;40161;39.768;2.722;2023-09-19T12:24:32;101442.81;;;25.52;80.64
54248;BME280;40161;39.768;2.722;2023-09-19T12:27:02;101428.56;;;25.33;81.05
54248;BME280;40161;39.768;2.722;2023-09-19T12:29:31;101440.81;;;25.27;81.59
54248;BME280;40161;39.768;2.722;2023-09-19T12:31:58;101435.75;;;25.22;81.66
54248;BME280;40161;39.768;2.722;2023-09-19T12:34:28;101425.88;;;25.17;82.35
54248;BME280;40161;39.768;2.722;2023-09-19T12:39:45;101416.69;;;25.17;83.14
54248;BME280;40161;39.768;2.722;2023-09-19T12:42:22;101407.91;;;25.27;83.08
54248;BME280;40161;39.768;2.722;2023-09-19T12:44:50;101405.44;;;25.29;85.14
54248;BME280;40161;39.768;2.722;2023-09-19T12:47:22;101406.88;;;25.34;83.51
54248;BME280;40161;39.768;2.722;2023-09-19T12:50:14;101398.09;;;25.32;85.52
54248;BME280;40161;39.768;2.722;2023-09-19T12:52:47;101400.00;;;25.35;87.66
54248;BME280;40161;39.768;2.722;2023-09-19T12:55:25;101385.09;;;25.25;88.64
54248;BME280;40161;39.768;2.722;2023-09-19T12:58:13;101406.22;;;25.30;88.15
54248;BME280;40161;39.768;2.722;2023-09-19T13:00:41;101390.03;;;25.21;88.91
54248;BME280;40161;39.768;2.722;2023-09-19T13:03:17;101384.09;;;25.19;90.21
54248;BME280;40161;39.768;2.722;2023-09-19T13:06:01;101393.06;;;25.27;93.06
54248;BME280;40161;39.768;2.722;2023-09-19T13:13:37;101371.28;;;25.05;100.00
54248;BME280;40161;39.768;2.722;2023-09-19T13:16:04;101336.16;;;24.88;100.00
54248;BME280;40161;39.768;2.722;2023-09-19T13:18:48;101338.28;;;24.84;100.00
54248;BME280;40161;39.768;2.722;2023-09-19T13:21:31;101352.66;;;24.86;100.00
54248;BME280;40161;39.768;2.722;2023-09-19T13:24:21;101354.09;;;24.91;100.00
54248;BME280;40161;39.768;2.722;2023-09-19T13:26:48;101344.34;;;24.82;100.00
54248;BME280;40161;39.768;2.722;2023-09-19T13:29:14;101373.09;;;24.86;100.00
54248;BME280;40161;39.768;2.722;2023-09-19T13:31:48;101361.22;;;24.28;100.00
54248;BME280;40161;39.768;2.722;2023-09-19T13:34:15;101368.81;;;24.44;100.00
54248;BME280;40161;39.768;2.722;2023-09-19T13:36:42;101362.94;;;24.38;100.00
54248;BME280;40161;39.768;2.722;2023-09-19T13:39:08;101370.47;;;24.41;100.00
54248;BME280;40161;39.768;2.722;2023-09-19T13:41:38;101344.66;;;24.46;100.00
54248;BME280;40161;39.768;2.722;2023-09-19T13:44:05;101359.06;;;24.61;100.00
54248;BME280;40161;39.768;2.722;2023-09-19T13:46:31;101361.63;;;24.55;100.00
54248;BME280;40161;39.768;2.722;2023-09-19T13:48:59;101373.09;;;24.61;100.00
54248;BME280;40161;39.768;2.722;2023-09-19T13:51:28;101395.22;;;24.72;100.00
54248;BME280;40161;39.768;2.722;2023-09-19T13:53:55;101395.53;;;24.74;100.00